Terminal Aerodrome Forecast
Issued by NWS

Home | Current Version | Previous Version | Text Only | Print | Product List | Glossary On
Versions: 1 2 3 4 5 6 7 8 9 10 11 12 13 14 15 16 17
000
FTUS46 KPDT 202300
TAFDLS
TAF
KDLS 202325Z 2100/2124 30022G30KT P6SM FEW070 FEW200
     FM210400 31014G24KT P6SM SKC
     FM210800 30010KT P6SM SKC
     FM211600 31010G18KT P6SM FEW250
     FM211900 32016G24KT P6SM SCT250=

USA.gov is the U.S. government's official web portal to all federal, state and local government web resources and services.